Terminal Aerodrome Forecast
Issued by NWS Portland, OR

Home | Current Version | Previous Version | Text Only | Print | Product List | Glossary On
Versions: 1 2 3 4 5 6 7 8 9 10 11 12 13 14 15 16 17 18 19 20 21 22 23
000
FTUS46 KPQR 232336
TAFHIO
TAF
KHIO 232336Z 2400/2424 VRB03KT P6SM FEW025 SCT250
     FM240100 VRB02KT P6SM FEW250
     FM240700 00000KT P6SM SCT120
     FM241500 00000KT P6SM SCT020=

USA.gov is the U.S. government's official web portal to all federal, state and local government web resources and services.